createdAt,value
2017-12-14T00:00:55.767Z,984.94
2017-12-14T00:01:54.181Z,984.94
2017-12-14T00:04:48.178Z,984.91
2017-12-14T00:05:40.084Z,984.89
2017-12-14T00:08:27.964Z,984.95
2017-12-14T00:09:27.923Z,984.97
2017-12-14T00:12:11.324Z,984.94
2017-12-14T00:13:11.295Z,984.94
2017-12-14T00:15:54.679Z,984.91
2017-12-14T00:16:54.637Z,984.93
2017-12-14T00:19:38.108Z,984.85
2017-12-14T00:20:37.971Z,984.81
2017-12-14T00:23:22.361Z,984.83
2017-12-14T00:24:22.339Z,984.86
2017-12-14T00:27:05.707Z,984.92
2017-12-14T00:28:05.670Z,984.89
2017-12-14T00:30:51.023Z,984.86
2017-12-14T00:31:50.988Z,984.86
2017-12-14T00:32:50.991Z,984.86
2017-12-14T00:33:50.973Z,984.86
2017-12-14T00:34:51.599Z,984.90
2017-12-14T00:35:50.951Z,984.98
2017-12-14T00:36:50.934Z,984.96
2017-12-14T00:37:50.928Z,984.97
2017-12-14T00:38:50.920Z,984.94
2017-12-14T00:39:50.913Z,984.90
2017-12-14T00:40:50.902Z,984.87
2017-12-14T00:41:50.895Z,984.81
2017-12-14T00:42:51.599Z,984.75
2017-12-14T00:43:50.873Z,984.80
2017-12-14T00:44:50.862Z,984.90
2017-12-14T00:45:50.849Z,984.87
2017-12-14T00:46:50.852Z,984.85
2017-12-14T00:47:50.842Z,984.73
2017-12-14T00:48:50.822Z,984.69
2017-12-14T00:49:50.815Z,984.72
2017-12-14T00:50:50.803Z,984.75
2017-12-14T00:51:50.797Z,984.74
2017-12-14T00:52:50.786Z,984.74
2017-12-14T00:53:50.773Z,984.78
2017-12-14T00:54:50.775Z,984.79
2017-12-14T00:55:50.749Z,984.78
2017-12-14T00:56:50.741Z,984.80
2017-12-14T00:57:50.729Z,984.76
2017-12-14T00:58:51.604Z,984.82
2017-12-14T00:59:50.714Z,984.82
2017-12-14T01:00:50.702Z,984.82
2017-12-14T01:01:50.686Z,984.80
2017-12-14T01:02:50.682Z,984.76
2017-12-14T01:03:50.675Z,984.77
2017-12-14T01:04:50.664Z,984.73
2017-12-14T01:05:50.657Z,984.64
2017-12-14T01:06:50.647Z,984.62
2017-12-14T01:07:50.630Z,984.59
2017-12-14T01:08:53.610Z,984.65
2017-12-14T01:09:50.614Z,984.67
2017-12-14T01:10:51.127Z,984.69
2017-12-14T01:11:51.108Z,984.74
2017-12-14T01:12:50.579Z,984.79
2017-12-14T01:13:50.567Z,984.86
2017-12-14T01:14:50.559Z,984.82
2017-12-14T01:15:50.553Z,984.87
2017-12-14T01:16:50.540Z,984.86
2017-12-14T01:17:50.530Z,984.87
2017-12-14T01:18:50.522Z,984.86
2017-12-14T01:19:50.509Z,984.79
2017-12-14T01:20:50.498Z,984.73
2017-12-14T01:21:50.491Z,984.68
2017-12-14T01:22:51.142Z,984.72
2017-12-14T01:23:50.472Z,984.76
2017-12-14T01:24:51.115Z,984.73
2017-12-14T01:25:50.450Z,984.79
2017-12-14T01:26:50.434Z,984.77
2017-12-14T01:27:50.435Z,984.83
2017-12-14T01:28:50.422Z,984.82
2017-12-14T01:29:50.406Z,984.85
2017-12-14T01:30:50.396Z,984.83
2017-12-14T01:31:50.388Z,984.84
2017-12-14T01:32:50.379Z,984.76
2017-12-14T01:33:50.366Z,984.78
2017-12-14T01:34:50.379Z,984.78
2017-12-14T01:35:51.117Z,984.82
2017-12-14T01:36:50.342Z,984.74
2017-12-14T01:37:50.327Z,984.69
2017-12-14T01:38:50.316Z,984.63
2017-12-14T01:39:50.309Z,984.58
2017-12-14T01:40:50.299Z,984.61
2017-12-14T01:41:53.121Z,984.56
2017-12-14T01:42:50.277Z,984.57
2017-12-14T01:43:50.269Z,984.53
2017-12-14T01:44:50.257Z,984.50
2017-12-14T01:45:50.244Z,984.46
2017-12-14T01:46:50.254Z,984.45
2017-12-14T01:47:51.124Z,984.44
2017-12-14T01:48:50.226Z,984.36
2017-12-14T01:49:50.208Z,984.35
2017-12-14T01:50:50.193Z,984.33
2017-12-14T01:51:50.186Z,984.31
2017-12-14T01:52:51.121Z,984.26
2017-12-14T01:53:50.163Z,984.27
2017-12-14T01:54:50.154Z,984.27
2017-12-14T01:55:50.146Z,984.29
2017-12-14T01:56:50.136Z,984.29
2017-12-14T01:57:50.128Z,984.25
2017-12-14T01:58:50.134Z,984.25
2017-12-14T01:59:50.111Z,984.26
2017-12-14T02:00:50.101Z,984.29
2017-12-14T02:01:50.087Z,984.27
2017-12-14T02:02:50.080Z,984.20
2017-12-14T02:03:50.071Z,984.15
2017-12-14T02:04:50.636Z,984.19
2017-12-14T02:05:50.047Z,984.14
2017-12-14T02:06:50.033Z,984.15
2017-12-14T02:07:50.020Z,984.14
2017-12-14T02:08:50.015Z,984.12
2017-12-14T02:09:50.004Z,984.05
2017-12-14T02:10:50.010Z,984.01
2017-12-14T02:11:49.985Z,984.02
2017-12-14T02:12:49.973Z,984.02
2017-12-14T02:13:49.964Z,984.01
2017-12-14T02:14:49.958Z,983.99
2017-12-14T02:15:49.948Z,983.98
2017-12-14T02:16:49.948Z,983.94
2017-12-14T02:17:49.920Z,983.91
2017-12-14T02:18:49.920Z,983.89
2017-12-14T02:19:49.916Z,983.85
2017-12-14T02:20:49.898Z,983.90
2017-12-14T02:21:49.888Z,983.93
2017-12-14T02:22:49.879Z,983.98
2017-12-14T02:23:49.867Z,983.96
2017-12-14T02:24:49.857Z,983.96
2017-12-14T02:25:49.845Z,984.02
2017-12-14T02:26:49.833Z,984.15
2017-12-14T02:27:49.825Z,984.12
2017-12-14T02:28:49.816Z,984.15
2017-12-14T02:29:49.799Z,984.09
2017-12-14T02:30:49.810Z,984.21
2017-12-14T02:31:49.793Z,984.25
2017-12-14T02:32:50.636Z,984.14
2017-12-14T02:33:49.768Z,984.17
2017-12-14T02:34:49.762Z,984.34
2017-12-14T02:35:49.750Z,984.19
2017-12-14T02:36:49.737Z,984.33
2017-12-14T02:37:49.729Z,984.35
2017-12-14T02:38:50.647Z,984.38
2017-12-14T02:39:49.711Z,984.43
2017-12-14T02:40:49.701Z,984.40
2017-12-14T02:41:49.684Z,984.49
2017-12-14T02:42:49.677Z,984.50
2017-12-14T02:43:49.670Z,984.55
2017-12-14T02:44:49.657Z,984.54
2017-12-14T02:45:49.652Z,984.61
2017-12-14T02:46:49.649Z,984.56
2017-12-14T02:47:49.632Z,984.53
2017-12-14T02:48:50.141Z,984.57
2017-12-14T02:49:49.617Z,984.52
2017-12-14T02:50:49.601Z,984.49
2017-12-14T02:51:49.590Z,984.45
2017-12-14T02:52:49.584Z,984.40
2017-12-14T02:53:49.570Z,984.37
2017-12-14T02:54:49.560Z,984.34
2017-12-14T02:55:49.554Z,984.30
2017-12-14T02:56:49.547Z,984.25
2017-12-14T02:57:49.524Z,984.24
2017-12-14T02:58:49.524Z,984.31
2017-12-14T02:59:49.514Z,984.44
2017-12-14T03:00:49.504Z,984.42
2017-12-14T03:01:49.494Z,984.38
2017-12-14T03:02:49.480Z,984.45
2017-12-14T03:03:49.476Z,984.35
2017-12-14T03:04:49.462Z,984.32
2017-12-14T03:05:49.450Z,984.36
2017-12-14T03:06:49.440Z,984.30
2017-12-14T03:07:49.430Z,984.34
2017-12-14T03:08:49.423Z,984.40
2017-12-14T03:09:49.410Z,984.39
2017-12-14T03:10:49.408Z,984.36
2017-12-14T03:11:49.398Z,984.42
2017-12-14T03:12:49.383Z,984.39
2017-12-14T03:13:49.374Z,984.35
2017-12-14T03:14:49.366Z,984.29
2017-12-14T03:15:49.360Z,984.35
2017-12-14T03:16:49.356Z,984.39
2017-12-14T03:17:49.335Z,984.42
2017-12-14T03:18:49.325Z,984.40
2017-12-14T03:19:49.313Z,984.37
2017-12-14T03:20:49.303Z,984.39
2017-12-14T03:21:49.297Z,984.35
2017-12-14T03:22:49.283Z,984.43
2017-12-14T03:23:49.275Z,984.44
2017-12-14T03:24:49.267Z,984.42
2017-12-14T03:25:49.253Z,984.37
2017-12-14T03:26:49.247Z,984.41
2017-12-14T03:27:49.244Z,984.35
2017-12-14T03:28:49.247Z,984.39
2017-12-14T03:29:49.218Z,984.39
2017-12-14T03:30:49.207Z,984.35
2017-12-14T03:31:49.201Z,984.40
2017-12-14T03:32:49.192Z,984.46
2017-12-14T03:33:49.184Z,984.48
2017-12-14T03:34:49.165Z,984.51
2017-12-14T03:35:49.158Z,984.48
2017-12-14T03:36:49.149Z,984.55
2017-12-14T03:37:49.133Z,984.64
2017-12-14T03:38:49.128Z,984.63
2017-12-14T03:39:49.116Z,984.57
2017-12-14T03:40:49.106Z,984.64
2017-12-14T03:41:49.096Z,984.63
2017-12-14T03:42:49.093Z,984.65
2017-12-14T03:43:49.084Z,984.57
2017-12-14T03:44:49.069Z,984.57
2017-12-14T03:45:49.058Z,984.56
2017-12-14T03:46:49.052Z,984.67
2017-12-14T03:47:49.041Z,984.57
2017-12-14T03:48:49.031Z,984.62
2017-12-14T03:49:49.020Z,984.60
2017-12-14T03:50:49.006Z,984.57
2017-12-14T03:51:48.995Z,984.69
2017-12-14T03:52:49.656Z,984.71
2017-12-14T03:53:48.978Z,984.78
2017-12-14T03:54:48.967Z,984.67
2017-12-14T03:55:48.961Z,984.66
2017-12-14T03:56:48.950Z,984.66
2017-12-14T03:57:48.934Z,984.70
2017-12-14T03:58:48.940Z,984.66
2017-12-14T03:59:48.932Z,984.65
2017-12-14T04:00:49.661Z,984.68
2017-12-14T04:01:48.893Z,984.64
2017-12-14T04:02:48.887Z,984.65
2017-12-14T04:03:49.664Z,984.74
2017-12-14T04:04:48.863Z,984.79
2017-12-14T04:05:48.850Z,984.85
2017-12-14T04:06:48.842Z,984.83
2017-12-14T04:07:48.843Z,984.89
2017-12-14T04:08:48.826Z,984.94
2017-12-14T04:09:49.672Z,984.92
2017-12-14T04:10:48.795Z,984.96
2017-12-14T04:11:48.792Z,985.04
2017-12-14T04:12:48.781Z,985.06
2017-12-14T04:13:48.770Z,985.11
2017-12-14T04:14:48.764Z,985.15
2017-12-14T04:15:51.666Z,985.17
2017-12-14T04:16:48.736Z,985.15
2017-12-14T04:17:48.728Z,985.19
2017-12-14T04:18:48.717Z,985.25
2017-12-14T04:19:48.705Z,985.25
2017-12-14T04:20:48.700Z,985.13
2017-12-14T04:21:48.702Z,985.23
2017-12-14T04:22:48.668Z,985.38
2017-12-14T04:23:48.669Z,985.41
2017-12-14T04:24:48.654Z,985.48
2017-12-14T04:25:48.647Z,985.52
2017-12-14T04:26:48.636Z,985.50
2017-12-14T04:27:49.173Z,985.39
2017-12-14T04:28:48.613Z,985.62
2017-12-14T04:29:48.606Z,985.52
2017-12-14T04:30:48.590Z,985.59
2017-12-14T04:31:48.592Z,985.57
2017-12-14T04:32:48.570Z,985.56
2017-12-14T04:33:48.564Z,985.57
2017-12-14T04:34:48.551Z,985.46
2017-12-14T04:35:48.565Z,985.57
2017-12-14T04:36:48.540Z,985.62
2017-12-14T04:37:48.521Z,985.65
2017-12-14T04:38:48.506Z,985.71
2017-12-14T04:39:48.510Z,985.71
2017-12-14T04:40:48.495Z,985.73
2017-12-14T04:41:49.189Z,985.82
2017-12-14T04:42:48.471Z,985.84
2017-12-14T04:43:48.466Z,985.78
2017-12-14T04:44:48.455Z,985.72
2017-12-14T04:45:48.447Z,985.89
2017-12-14T04:46:48.430Z,985.82
2017-12-14T04:47:48.421Z,985.89
2017-12-14T04:48:48.410Z,985.92
2017-12-14T04:49:48.399Z,985.77
2017-12-14T04:50:48.388Z,985.83
2017-12-14T04:51:48.383Z,985.82
2017-12-14T04:52:48.369Z,985.76
2017-12-14T04:53:48.354Z,985.83
2017-12-14T04:54:48.349Z,985.81
2017-12-14T04:55:48.343Z,985.97
2017-12-14T04:56:48.334Z,986.07
2017-12-14T04:57:49.182Z,986.07
2017-12-14T04:58:48.307Z,986.04
2017-12-14T04:59:48.297Z,986.16
2017-12-14T05:00:48.287Z,986.04
2017-12-14T05:01:48.277Z,986.05
2017-12-14T05:02:48.269Z,986.11
2017-12-14T05:03:48.262Z,986.12
2017-12-14T05:04:48.250Z,986.21
2017-12-14T05:05:48.248Z,986.18
2017-12-14T05:06:48.226Z,986.15
2017-12-14T05:07:48.219Z,986.18
2017-12-14T05:08:49.186Z,986.20
2017-12-14T05:09:48.200Z,986.17
2017-12-14T05:10:48.184Z,986.14
2017-12-14T05:11:48.174Z,986.18
2017-12-14T05:12:48.161Z,986.18
2017-12-14T05:13:48.156Z,986.14
2017-12-14T05:14:48.139Z,986.15
2017-12-14T05:15:48.138Z,986.17
2017-12-14T05:16:48.124Z,986.16
2017-12-14T05:17:48.103Z,986.09
2017-12-14T05:18:48.104Z,986.12
2017-12-14T05:19:48.101Z,986.15
2017-12-14T05:20:48.691Z,986.08
2017-12-14T05:21:48.071Z,986.10
2017-12-14T05:22:48.062Z,986.08
2017-12-14T05:23:48.068Z,986.08
2017-12-14T05:24:48.042Z,986.11
2017-12-14T05:25:48.688Z,985.97
2017-12-14T05:26:48.018Z,986.12
2017-12-14T05:27:48.008Z,986.11
2017-12-14T05:28:47.999Z,986.13
2017-12-14T05:29:47.983Z,986.08
2017-12-14T05:30:47.974Z,986.22
2017-12-14T05:31:47.965Z,986.32
2017-12-14T05:32:47.966Z,986.22
2017-12-14T05:33:47.949Z,986.25
2017-12-14T05:34:47.937Z,986.28
2017-12-14T05:35:47.924Z,986.16
2017-12-14T05:35:59.925Z,986.20
2017-12-14T05:37:47.905Z,986.15
2017-12-14T05:38:48.704Z,986.12
2017-12-14T05:39:47.898Z,986.19
2017-12-14T05:40:47.869Z,986.26
2017-12-14T05:41:47.863Z,986.26
2017-12-14T05:42:47.855Z,986.28
2017-12-14T05:43:47.841Z,986.24
2017-12-14T05:44:47.834Z,986.24
2017-12-14T05:45:47.820Z,986.22
2017-12-14T05:46:47.804Z,986.29
2017-12-14T05:47:47.805Z,986.22
2017-12-14T05:48:47.789Z,986.41
2017-12-14T05:49:47.780Z,986.26
2017-12-14T05:50:47.773Z,986.30
2017-12-14T05:51:47.763Z,986.46
2017-12-14T05:52:47.753Z,986.42
2017-12-14T05:53:47.739Z,986.57
2017-12-14T05:54:47.736Z,986.53
2017-12-14T05:55:48.691Z,986.52
2017-12-14T05:56:47.712Z,986.48
2017-12-14T05:57:47.697Z,986.59
2017-12-14T05:58:47.688Z,986.60
2017-12-14T05:59:47.676Z,986.67
2017-12-14T06:00:47.671Z,986.68
2017-12-14T06:01:47.653Z,986.62
2017-12-14T06:02:47.640Z,986.45
2017-12-14T06:03:47.638Z,986.57
2017-12-14T06:04:47.629Z,986.57
2017-12-14T06:05:47.615Z,986.83
2017-12-14T06:06:47.608Z,986.63
2017-12-14T06:07:47.599Z,986.67
2017-12-14T06:08:47.593Z,986.73
2017-12-14T06:09:47.579Z,986.98
2017-12-14T06:10:47.564Z,986.91
2017-12-14T06:11:47.552Z,987.27
2017-12-14T06:12:47.551Z,987.12
2017-12-14T06:13:47.538Z,987.24
2017-12-14T06:14:47.524Z,987.19
2017-12-14T06:15:47.518Z,987.25
2017-12-14T06:16:47.505Z,987.59
2017-12-14T06:17:47.497Z,987.29
2017-12-14T06:18:47.488Z,987.40
2017-12-14T06:19:47.478Z,987.55
2017-12-14T06:20:47.470Z,987.67
2017-12-14T06:21:47.457Z,987.81
2017-12-14T06:22:47.441Z,987.47
2017-12-14T06:23:47.440Z,987.76
2017-12-14T06:24:47.431Z,987.78
2017-12-14T06:25:48.201Z,987.44
2017-12-14T06:26:47.409Z,987.62
2017-12-14T06:27:48.206Z,987.80
2017-12-14T06:28:47.397Z,987.80
2017-12-14T06:29:47.379Z,987.92
2017-12-14T06:30:47.367Z,987.91
2017-12-14T06:31:47.359Z,987.87
2017-12-14T06:32:47.365Z,987.90
2017-12-14T06:33:47.337Z,987.98
2017-12-14T06:34:47.327Z,988.00
2017-12-14T06:35:47.320Z,988.10
2017-12-14T06:36:47.309Z,988.06
2017-12-14T06:37:47.301Z,988.05
2017-12-14T06:38:47.291Z,988.18
2017-12-14T06:39:47.286Z,988.20
2017-12-14T06:40:47.280Z,988.06
2017-12-14T06:41:47.288Z,988.26
2017-12-14T06:42:47.258Z,988.26
2017-12-14T06:43:47.247Z,988.16
2017-12-14T06:44:47.247Z,988.10
2017-12-14T06:45:47.226Z,988.28
2017-12-14T06:46:47.204Z,988.28
2017-12-14T06:47:47.205Z,988.18
2017-12-14T06:48:47.194Z,988.28
2017-12-14T06:49:47.185Z,988.25
2017-12-14T06:50:49.714Z,988.18
2017-12-14T06:51:47.171Z,988.29
2017-12-14T06:52:47.156Z,988.27
2017-12-14T06:53:47.141Z,988.35
2017-12-14T06:54:47.138Z,988.34
2017-12-14T06:55:47.157Z,988.29
2017-12-14T06:56:47.128Z,988.29
2017-12-14T06:57:47.112Z,988.27
2017-12-14T06:58:47.102Z,988.32
2017-12-14T06:59:47.093Z,988.38
2017-12-14T07:00:47.086Z,988.31
2017-12-14T07:01:47.071Z,988.35
2017-12-14T07:02:47.059Z,988.24
2017-12-14T07:03:48.276Z,988.36
2017-12-14T07:04:47.046Z,988.36
2017-12-14T07:05:47.029Z,988.46
2017-12-14T07:06:47.022Z,988.49
2017-12-14T07:07:47.028Z,988.50
2017-12-14T07:08:47.007Z,988.54
2017-12-14T07:09:46.990Z,988.48
2017-12-14T07:10:46.974Z,988.49
2017-12-14T07:11:46.967Z,988.45
2017-12-14T07:12:46.951Z,988.49
2017-12-14T07:13:46.943Z,988.59
2017-12-14T07:14:46.932Z,988.60
2017-12-14T07:15:46.924Z,988.60
2017-12-14T07:16:46.906Z,988.63
2017-12-14T07:17:46.904Z,988.57
2017-12-14T07:18:46.896Z,988.58
2017-12-14T07:19:47.739Z,988.61
2017-12-14T07:20:47.723Z,988.64
2017-12-14T07:21:46.863Z,988.62
2017-12-14T07:22:46.854Z,988.59
2017-12-14T07:23:46.850Z,988.60
2017-12-14T07:24:46.834Z,988.63
2017-12-14T07:25:46.822Z,988.63
2017-12-14T07:26:46.815Z,988.63
2017-12-14T07:27:46.805Z,988.70
2017-12-14T07:28:46.785Z,988.70
2017-12-14T07:29:46.803Z,988.81
2017-12-14T07:30:46.774Z,988.78
2017-12-14T07:31:47.726Z,988.76
2017-12-14T07:32:46.747Z,988.75
2017-12-14T07:33:46.740Z,988.66
2017-12-14T07:34:46.728Z,988.67
2017-12-14T07:35:46.718Z,988.73
2017-12-14T07:36:46.710Z,988.70
2017-12-14T07:37:47.227Z,988.79
2017-12-14T07:38:46.688Z,988.77
2017-12-14T07:39:46.677Z,988.80
2017-12-14T07:40:46.668Z,988.78
2017-12-14T07:41:46.655Z,988.85
2017-12-14T07:42:46.651Z,988.87
2017-12-14T07:43:46.628Z,988.96
2017-12-14T07:44:46.625Z,988.92
2017-12-14T07:45:46.604Z,988.99
2017-12-14T07:46:46.600Z,989.01
2017-12-14T07:47:46.588Z,988.97
2017-12-14T07:48:47.228Z,989.02
2017-12-14T07:49:46.567Z,988.99
2017-12-14T07:50:46.558Z,988.99
2017-12-14T07:51:46.553Z,988.89
2017-12-14T07:52:46.537Z,988.95
2017-12-14T07:53:46.530Z,988.96
2017-12-14T07:54:46.532Z,988.96
2017-12-14T07:55:46.504Z,989.05
2017-12-14T07:56:46.497Z,989.02
2017-12-14T07:57:46.486Z,988.94
2017-12-14T07:58:46.472Z,989.10
2017-12-14T07:59:46.464Z,989.05
2017-12-14T08:00:46.458Z,988.97
2017-12-14T08:01:46.441Z,988.97
2017-12-14T08:02:46.439Z,989.00
2017-12-14T08:03:46.414Z,989.01
2017-12-14T08:04:46.414Z,989.03
2017-12-14T08:05:46.399Z,988.96
2017-12-14T08:06:46.393Z,988.89
2017-12-14T08:07:46.383Z,988.99
2017-12-14T08:08:46.376Z,988.96
2017-12-14T08:09:46.359Z,988.98
2017-12-14T08:10:46.352Z,989.00
2017-12-14T08:11:46.335Z,988.98
2017-12-14T08:12:46.324Z,988.99
2017-12-14T08:13:46.316Z,988.94
2017-12-14T08:14:46.310Z,988.96
2017-12-14T08:15:46.306Z,988.95
2017-12-14T08:16:46.291Z,989.00
2017-12-14T08:17:46.285Z,988.98
2017-12-14T08:18:46.260Z,988.99
2017-12-14T08:19:46.264Z,989.05
2017-12-14T08:20:46.251Z,988.97
2017-12-14T08:21:46.240Z,989.00
2017-12-14T08:22:46.230Z,989.03
2017-12-14T08:23:46.219Z,989.08
2017-12-14T08:24:46.219Z,989.01
2017-12-14T08:25:46.200Z,988.96
2017-12-14T08:26:46.183Z,989.01
2017-12-14T08:27:46.754Z,989.05
2017-12-14T08:28:46.168Z,989.02
2017-12-14T08:29:46.154Z,989.05
2017-12-14T08:30:46.151Z,989.14
2017-12-14T08:31:46.139Z,989.13
2017-12-14T08:32:46.138Z,989.17
2017-12-14T08:33:46.121Z,989.16
2017-12-14T08:34:46.113Z,989.17
2017-12-14T08:35:46.103Z,989.16
2017-12-14T08:36:46.094Z,989.16
2017-12-14T08:37:46.082Z,989.19
2017-12-14T08:38:46.068Z,989.23
2017-12-14T08:39:46.064Z,989.22
2017-12-14T08:40:46.050Z,989.25
2017-12-14T08:41:46.037Z,989.25
2017-12-14T08:42:46.030Z,989.27
2017-12-14T08:43:46.025Z,989.21
2017-12-14T08:44:46.015Z,989.21
2017-12-14T08:45:46.000Z,989.24
2017-12-14T08:46:46.007Z,989.21
2017-12-14T08:47:45.985Z,989.22
2017-12-14T08:48:45.979Z,989.22
2017-12-14T08:49:45.983Z,989.11
2017-12-14T08:50:45.961Z,989.13
2017-12-14T08:51:45.947Z,989.15
2017-12-14T08:52:45.937Z,989.14
2017-12-14T08:53:45.920Z,989.20
2017-12-14T08:54:45.913Z,989.23
2017-12-14T08:55:45.909Z,989.26
2017-12-14T08:56:45.897Z,989.28
2017-12-14T08:57:45.887Z,989.32
2017-12-14T08:58:45.874Z,989.35
2017-12-14T08:59:45.870Z,989.37
2017-12-14T09:00:45.859Z,989.35
2017-12-14T09:01:45.852Z,989.31
2017-12-14T09:02:45.842Z,989.34
2017-12-14T09:03:45.838Z,989.39
2017-12-14T09:04:45.823Z,989.39
2017-12-14T09:05:45.812Z,989.34
2017-12-14T09:06:46.755Z,989.31
2017-12-14T09:07:46.757Z,989.34
2017-12-14T09:08:45.789Z,989.36
2017-12-14T09:09:45.775Z,989.37
2017-12-14T09:10:45.767Z,989.36
2017-12-14T09:11:45.754Z,989.36
2017-12-14T09:12:46.254Z,989.37
2017-12-14T09:13:45.737Z,989.41
2017-12-14T09:14:45.781Z,989.51
2017-12-14T09:15:46.257Z,989.49
2017-12-14T09:16:54.359Z,989.49
2017-12-14T09:19:29.629Z,989.53
2017-12-14T09:20:29.065Z,989.59
2017-12-14T09:23:13.446Z,989.55
2017-12-14T09:24:13.405Z,989.66
2017-12-14T09:26:56.783Z,989.61
2017-12-14T09:27:56.752Z,989.65
2017-12-14T09:30:40.675Z,989.66
2017-12-14T09:31:40.098Z,989.72
2017-12-14T09:34:24.464Z,989.75
2017-12-14T09:35:24.441Z,989.77
2017-12-14T09:38:09.362Z,989.79
2017-12-14T09:39:08.781Z,989.81
2017-12-14T09:41:53.166Z,989.92
2017-12-14T09:42:53.122Z,989.85
2017-12-14T09:45:36.510Z,989.89
2017-12-14T09:46:36.478Z,989.88
2017-12-14T09:49:20.866Z,989.87
2017-12-14T09:50:20.838Z,989.77
2017-12-14T09:53:05.204Z,989.98
2017-12-14T09:54:05.172Z,989.95
2017-12-14T09:55:05.160Z,989.95
2017-12-14T09:56:05.150Z,989.91
2017-12-14T09:57:05.143Z,989.94
2017-12-14T09:58:05.136Z,989.91
2017-12-14T09:59:05.125Z,989.91
2017-12-14T10:00:06.750Z,989.90
2017-12-14T10:01:05.111Z,989.87
2017-12-14T10:02:05.144Z,989.93
2017-12-14T10:03:05.095Z,989.93
2017-12-14T10:04:05.083Z,989.94
2017-12-14T10:05:05.077Z,989.86
2017-12-14T10:06:05.070Z,989.92
2017-12-14T10:07:05.054Z,989.88
2017-12-14T10:08:05.051Z,989.86
2017-12-14T10:09:05.048Z,989.91
2017-12-14T10:10:05.032Z,989.92
2017-12-14T10:11:05.026Z,989.97
2017-12-14T10:12:05.012Z,989.81
2017-12-14T10:13:06.758Z,989.91
2017-12-14T10:14:05.001Z,989.91
2017-12-14T10:15:04.993Z,989.87
2017-12-14T10:16:04.987Z,989.90
2017-12-14T10:17:06.756Z,989.93
2017-12-14T10:18:04.963Z,989.92
2017-12-14T10:19:06.757Z,989.89
2017-12-14T10:20:04.945Z,989.84
2017-12-14T10:21:06.757Z,989.85
2017-12-14T10:22:04.930Z,989.79
2017-12-14T10:23:04.919Z,989.79
2017-12-14T10:24:04.911Z,989.78
2017-12-14T10:25:04.909Z,989.80
2017-12-14T10:26:04.902Z,989.81
2017-12-14T10:27:04.890Z,989.74
2017-12-14T10:28:04.881Z,989.79
2017-12-14T10:29:04.879Z,989.79
2017-12-14T10:30:04.866Z,989.74
2017-12-14T10:31:04.857Z,989.77
2017-12-14T10:32:04.849Z,989.80
2017-12-14T10:33:04.837Z,989.72
2017-12-14T10:34:04.830Z,989.65
2017-12-14T10:35:06.757Z,989.62
2017-12-14T10:36:06.764Z,989.67
2017-12-14T10:37:04.802Z,989.70
2017-12-14T10:38:06.764Z,989.75
2017-12-14T10:39:06.766Z,989.80
2017-12-14T10:39:19.103Z,989.79
2017-12-14T10:41:04.771Z,989.75
2017-12-14T10:42:06.271Z,989.71
2017-12-14T10:43:04.755Z,989.75
2017-12-14T10:44:04.754Z,989.69
2017-12-14T10:45:04.737Z,989.67
2017-12-14T10:46:06.267Z,989.63
2017-12-14T10:47:06.268Z,989.62
2017-12-14T10:48:04.735Z,989.53
2017-12-14T10:49:04.703Z,989.55
2017-12-14T10:50:04.692Z,989.46
2017-12-14T10:51:04.687Z,989.52
2017-12-14T10:52:06.267Z,989.60
2017-12-14T10:53:06.268Z,989.64
2017-12-14T10:54:04.659Z,989.62
2017-12-14T10:57:26.541Z,989.44
2017-12-14T10:58:17.648Z,989.47
2017-12-14T11:01:13.591Z,989.43
2017-12-14T11:02:04.097Z,989.38
2017-12-14T11:04:56.091Z,989.28
2017-12-14T11:05:48.413Z,989.27
2017-12-14T11:08:32.791Z,989.34
2017-12-14T11:09:32.758Z,989.28
2017-12-14T11:10:32.766Z,989.30
2017-12-14T11:11:32.740Z,989.27
2017-12-14T11:12:32.730Z,989.24
2017-12-14T11:13:41.369Z,989.34
2017-12-14T11:16:17.106Z,989.25
2017-12-14T11:17:17.073Z,989.15
2017-12-14T11:20:00.453Z,989.23
2017-12-14T11:21:00.417Z,989.24
2017-12-14T11:23:44.794Z,989.30
2017-12-14T11:24:44.758Z,989.28
2017-12-14T11:27:28.143Z,989.24
2017-12-14T11:28:28.106Z,989.28
2017-12-14T11:31:12.506Z,989.21
2017-12-14T11:32:12.460Z,989.21
2017-12-14T11:34:55.842Z,989.16
2017-12-14T11:35:55.818Z,989.17
2017-12-14T11:38:40.187Z,989.20
2017-12-14T11:39:40.158Z,989.16
2017-12-14T11:40:40.152Z,989.11
2017-12-14T11:41:40.149Z,989.09
2017-12-14T11:42:40.137Z,989.13
2017-12-14T11:43:40.123Z,989.12
2017-12-14T11:44:40.118Z,989.07
2017-12-14T11:45:40.110Z,989.10
2017-12-14T11:46:40.106Z,989.14
2017-12-14T11:47:40.087Z,989.14
2017-12-14T11:48:40.078Z,989.09
2017-12-14T11:49:40.073Z,989.16
2017-12-14T11:50:40.066Z,989.14
2017-12-14T11:51:40.057Z,989.11
2017-12-14T11:52:40.046Z,989.10
2017-12-14T11:53:40.042Z,989.05
2017-12-14T11:54:40.052Z,989.06
2017-12-14T11:55:40.027Z,989.09
2017-12-14T11:56:40.017Z,989.11
2017-12-14T11:57:40.008Z,989.10
2017-12-14T11:58:39.999Z,988.99
2017-12-14T11:59:39.993Z,988.97
2017-12-14T12:00:39.989Z,989.02
2017-12-14T12:01:39.980Z,989.01
2017-12-14T12:02:39.973Z,988.98
2017-12-14T12:03:39.960Z,988.96
2017-12-14T12:04:39.949Z,989.03
2017-12-14T12:05:39.940Z,989.02
2017-12-14T12:06:39.935Z,989.04
2017-12-14T12:07:39.936Z,989.07
2017-12-14T12:08:39.918Z,989.02
2017-12-14T12:09:39.905Z,989.05
2017-12-14T12:10:39.896Z,989.01
2017-12-14T12:11:39.896Z,989.01
2017-12-14T12:12:39.887Z,988.92
2017-12-14T12:13:39.880Z,989.00
2017-12-14T12:14:39.877Z,989.08
2017-12-14T12:15:39.861Z,989.09
2017-12-14T12:16:39.854Z,989.06
2017-12-14T12:17:39.846Z,989.03
2017-12-14T12:18:39.840Z,988.99
2017-12-14T12:19:39.826Z,989.08
2017-12-14T12:20:39.817Z,989.01
2017-12-14T12:21:40.752Z,988.99
2017-12-14T12:22:39.802Z,989.05
2017-12-14T12:23:39.793Z,988.96
2017-12-14T12:24:39.841Z,988.97
2017-12-14T12:25:39.777Z,989.00
2017-12-14T12:26:39.769Z,988.94
2017-12-14T12:27:40.754Z,988.95
2017-12-14T12:28:39.757Z,988.89
2017-12-14T12:29:39.750Z,988.93
2017-12-14T12:30:39.739Z,988.87
2017-12-14T12:31:39.733Z,988.85
2017-12-14T12:32:39.723Z,988.91
2017-12-14T12:33:39.713Z,988.83
2017-12-14T12:34:39.717Z,988.88
2017-12-14T12:35:39.694Z,988.86
2017-12-14T12:36:39.691Z,988.85
2017-12-14T12:37:39.676Z,988.85
2017-12-14T12:38:39.665Z,988.89
2017-12-14T12:39:39.665Z,988.81
2017-12-14T12:40:40.267Z,988.78
2017-12-14T12:41:39.660Z,988.79
2017-12-14T12:42:39.638Z,988.80
2017-12-14T12:43:39.625Z,988.65
2017-12-14T12:44:39.616Z,988.64
2017-12-14T12:45:39.610Z,988.75
2017-12-14T12:46:39.603Z,988.74
2017-12-14T12:47:42.269Z,988.76
2017-12-14T12:48:39.587Z,988.75
2017-12-14T12:49:39.574Z,988.78
2017-12-14T12:50:39.572Z,988.76
2017-12-14T12:51:39.556Z,988.71
2017-12-14T12:52:39.548Z,988.81
2017-12-14T12:53:39.546Z,988.78
2017-12-14T12:54:39.542Z,988.73
2017-12-14T12:55:39.526Z,988.72
2017-12-14T12:56:39.515Z,988.68
2017-12-14T12:57:39.512Z,988.70
2017-12-14T12:58:39.512Z,988.65
2017-12-14T12:59:39.488Z,988.72
2017-12-14T13:00:39.483Z,988.66
2017-12-14T13:01:39.468Z,988.68
2017-12-14T13:02:39.465Z,988.62
2017-12-14T13:03:39.457Z,988.52
2017-12-14T13:04:39.450Z,988.52
2017-12-14T13:05:39.450Z,988.61
2017-12-14T13:06:39.430Z,988.57
2017-12-14T13:07:39.432Z,988.55
2017-12-14T13:08:39.414Z,988.53
2017-12-14T13:09:39.404Z,988.52
2017-12-14T13:10:39.420Z,988.50
2017-12-14T13:11:39.390Z,988.49
2017-12-14T13:12:39.381Z,988.52
2017-12-14T13:13:39.369Z,988.52
2017-12-14T13:14:39.363Z,988.46
2017-12-14T13:15:39.352Z,988.48
2017-12-14T13:16:39.351Z,988.47
2017-12-14T13:17:39.344Z,988.49
2017-12-14T13:18:39.326Z,988.47
2017-12-14T13:19:39.321Z,988.46